Time;durP1;ratioP1;P1;durP2;ratioP2;P2;SDS_P1;SDS_P2;PMS_P1;PMS_P2;Temp;Humidity;BMP_temperature;BMP_pressure;BME280_temperature;BME280_humidity;BME280_pressure;Samples;Min_cycle;Max_cycle;Signal;HPM_P1;HPM_P2
2023/02/28 00:01:06;;;;;;;2.47;2.27;;;0.40;97.30;;;;;;5013373;28;20703;-82
2023/02/28 00:03:34;;;;;;;1.33;1.23;;;0.40;97.30;;;;;;5012147;28;20278;-86
2023/02/28 00:06:07;;;;;;;1.30;1.17;;;0.40;97.30;;;;;;5034079;28;20172;-85
2023/02/28 00:08:33;;;;;;;1.70;1.60;;;0.40;97.30;;;;;;5011653;28;20404;-82
2023/02/28 00:11:09;;;;;;;1.20;1.10;;;0.40;97.30;;;;;;5015402;28;20434;-83
2023/02/28 00:13:37;;;;;;;1.63;1.53;;;0.40;97.30;;;;;;5019586;28;20418;-82
2023/02/28 00:16:05;;;;;;;1.30;1.20;;;0.40;97.30;;;;;;5017311;28;20440;-83
2023/02/28 00:18:31;;;;;;;1.20;1.10;;;0.40;97.30;;;;;;5025348;28;20392;-83
2023/02/28 00:20:57;;;;;;;1.40;1.30;;;0.40;97.30;;;;;;5030491;28;20440;-83
2023/02/28 00:23:23;;;;;;;1.97;1.87;;;0.40;97.30;;;;;;5052886;28;20200;-83
2023/02/28 00:25:48;;;;;;;1.67;1.60;;;0.40;97.30;;;;;;5021013;28;20431;-85
2023/02/28 00:28:14;;;;;;;1.40;1.30;;;0.40;97.30;;;;;;5021493;28;20201;-82
2023/02/28 00:30:39;;;;;;;1.30;1.20;;;0.40;97.30;;;;;;5042623;28;20175;-84
2023/02/28 00:33:05;;;;;;;1.63;1.53;;;0.40;97.30;;;;;;5023603;28;20224;-82
2023/02/28 00:35:30;;;;;;;1.47;1.37;;;0.40;97.30;;;;;;5024822;28;20299;-84
2023/02/28 00:37:56;;;;;;;2.30;1.37;;;0.40;97.30;;;;;;5018579;28;20194;-82
2023/02/28 00:40:24;;;;;;;2.93;1.40;;;0.40;97.30;;;;;;5025522;28;20239;-82
2023/02/28 00:42:50;;;;;;;1.53;1.43;;;0.40;97.30;;;;;;5030238;28;20247;-83
2023/02/28 00:45:15;;;;;;;4.73;1.30;;;0.40;97.30;;;;;;5018716;28;20454;-84
2023/02/28 00:47:41;;;;;;;1.60;1.50;;;0.40;97.30;;;;;;5021255;28;20184;-83
2023/02/28 00:50:08;;;;;;;1.57;1.33;;;0.40;97.30;;;;;;5016040;28;20829;-81
2023/02/28 00:52:33;;;;;;;1.20;1.10;;;0.50;97.30;;;;;;5018462;28;20195;-83
2023/02/28 00:54:59;;;;;;;2.27;2.07;;;0.50;97.30;;;;;;5018705;28;20426;-83
2023/02/28 00:57:24;;;;;;;1.07;0.97;;;0.40;97.30;;;;;;5011853;28;25134;-83
2023/02/28 00:59:50;;;;;;;1.50;1.40;;;0.40;97.30;;;;;;5038167;28;20179;-84
2023/02/28 01:02:15;;;;;;;4.13;3.60;;;0.40;97.30;;;;;;5024169;28;20188;-82
2023/02/28 01:04:41;;;;;;;1.83;1.73;;;0.40;97.30;;;;;;5026450;28;20247;-83
2023/02/28 01:07:06;;;;;;;1.63;1.57;;;0.40;97.30;;;;;;5017079;28;20187;-83
2023/02/28 01:09:32;;;;;;;1.80;1.70;;;0.40;97.30;;;;;;5015095;28;20173;-86
2023/02/28 01:12:00;;;;;;;1.10;1.00;;;0.40;97.30;;;;;;5017801;28;20191;-81
2023/02/28 01:14:25;;;;;;;1.00;0.90;;;0.40;97.30;;;;;;5017309;28;20226;-84
2023/02/28 01:16:51;;;;;;;1.20;1.10;;;0.40;97.30;;;;;;5019760;28;20534;-84
2023/02/28 01:19:17;;;;;;;1.20;1.10;;;0.40;97.30;;;;;;5019089;28;20179;-85
2023/02/28 01:21:42;;;;;;;4.00;1.97;;;0.40;97.30;;;;;;5021025;28;20182;-87
2023/02/28 01:24:10;;;;;;;2.50;2.30;;;0.40;97.30;;;;;;5021067;28;20255;-86
2023/02/28 01:26:35;;;;;;;1.43;1.33;;;0.30;97.30;;;;;;5009710;28;20169;-87
2023/02/28 01:29:01;;;;;;;1.50;1.40;;;0.30;97.30;;;;;;5019964;28;20401;-86
2023/02/28 01:31:27;;;;;;;1.40;1.30;;;0.40;97.30;;;;;;5019327;28;20892;-87
2023/02/28 01:33:52;;;;;;;5.00;2.00;;;0.40;97.30;;;;;;5011596;28;20228;-87
2023/02/28 01:36:20;;;;;;;1.97;1.50;;;0.40;97.30;;;;;;5013626;28;20219;-87
2023/02/28 01:38:49;;;;;;;1.73;1.63;;;0.40;97.30;;;;;;5008740;28;20729;-87
2023/02/28 01:41:23;;;;;;;1.70;1.67;;;0.40;97.30;;;;;;5002054;28;20422;-87
2023/02/28 01:43:48;;;;;;;1.10;1.00;;;0.40;97.30;;;;;;5015876;28;20979;-87
2023/02/28 01:46:18;;;;;;;2.87;1.93;;;0.40;97.30;;;;;;5011261;28;20213;-87
2023/02/28 01:48:52;;;;;;;2.20;1.83;;;0.40;97.30;;;;;;5007816;28;20183;-86
2023/02/28 01:51:32;;;;;;;1.20;1.10;;;0.40;97.30;;;;;;5007615;28;20993;-86
2023/02/28 01:54:03;;;;;;;2.30;1.23;;;0.40;97.30;;;;;;5016519;28;21138;-86
2023/02/28 01:56:33;;;;;;;1.60;1.50;;;0.30;97.30;;;;;;5010580;28;20307;-86
2023/02/28 01:58:58;;;;;;;1.33;1.23;;;0.30;97.30;;;;;;5026026;28;20418;-87
2023/02/28 02:01:37;;;;;;;;;;;;;;;;;;;;;
2023/02/28 02:04:03;;;;;;;1.43;1.33;;;0.40;97.30;;;;;;5036597;28;20559;-86
2023/02/28 02:06:42;;;;;;;2.33;1.30;;;0.40;97.30;;;;;;5013125;28;20413;-86
2023/02/28 02:09:08;;;;;;;1.80;1.70;;;0.40;97.30;;;;;;5014518;28;20411;-86
2023/02/28 02:11:35;;;;;;;1.63;1.53;;;0.40;97.30;;;;;;4999796;28;21017;-86
2023/02/28 02:14:40;;;;;;;1.20;1.10;;;0.40;97.30;;;;;;5002497;28;20931;-85
2023/02/28 02:17:32;;;;;;;1.20;1.10;;;0.40;97.30;;;;;;5007787;28;21111;-85
2023/02/28 02:20:19;;;;;;;1.37;1.27;;;0.30;97.30;;;;;;5017218;28;20422;-84
2023/02/28 02:23:05;;;;;;;1.10;1.00;;;0.30;97.30;;;;;;5009272;28;20961;-85
2023/02/28 02:25:50;;;;;;;1.60;1.50;;;0.30;97.30;;;;;;5005628;28;20404;-85
2023/02/28 02:28:34;;;;;;;3.60;1.87;;;0.30;97.30;;;;;;5008138;28;20422;-85
2023/02/28 02:31:19;;;;;;;1.40;1.30;;;0.30;97.30;;;;;;5035482;28;20396;-84
2023/02/28 02:34:00;;;;;;;2.13;1.30;;;0.20;97.30;;;;;;5014245;28;20476;-83
2023/02/28 02:36:52;;;;;;;1.57;1.50;;;0.30;97.30;;;;;;5017987;28;20442;-85
2023/02/28 02:39:52;;;;;;;1.13;1.03;;;0.20;97.30;;;;;;5007067;28;20196;-85
2023/02/28 02:42:42;;;;;;;2.40;1.73;;;0.20;97.30;;;;;;5013834;28;20511;-84
2023/02/28 02:45:15;;;;;;;1.33;1.30;;;0.20;97.30;;;;;;5013716;28;20440;-84
2023/02/28 02:47:42;;;;;;;1.90;1.80;;;0.10;97.30;;;;;;5014310;28;20430;-87
2023/02/28 02:50:13;;;;;;;1.30;1.20;;;0.10;97.30;;;;;;5003737;28;20549;-85
2023/02/28 02:52:51;;;;;;;1.23;1.13;;;0.00;97.30;;;;;;5010640;28;20416;-84
2023/02/28 02:55:18;;;;;;;1.83;1.77;;;0.00;97.30;;;;;;5009747;28;20278;-87
2023/02/28 02:57:58;;;;;;;1.70;1.60;;;0.00;97.30;;;;;;5022658;28;20200;-85
2023/02/28 03:00:31;;;;;;;1.90;1.80;;;-0.10;97.30;;;;;;5012470;28;20561;-83
2023/02/28 03:02:57;;;;;;;1.27;1.17;;;-0.10;97.30;;;;;;5014020;28;20245;-84
2023/02/28 03:05:31;;;;;;;1.40;1.30;;;-0.10;97.30;;;;;;5031362;28;20452;-84
2023/02/28 03:07:57;;;;;;;1.30;1.20;;;-0.20;97.30;;;;;;5025513;28;20398;-83
2023/02/28 03:10:50;;;;;;;2.00;1.87;;;-0.20;97.30;;;;;;5006108;28;20510;-85
2023/02/28 03:13:50;;;;;;;1.30;1.20;;;-0.30;97.30;;;;;;4997542;28;20754;-87
2023/02/28 03:16:34;;;;;;;1.53;1.50;;;-0.30;97.30;;;;;;5024533;28;20233;-85
2023/02/28 03:19:21;;;;;;;3.07;1.47;;;-0.40;97.30;;;;;;5006790;28;20452;-87
2023/02/28 03:21:56;;;;;;;1.20;1.10;;;-0.40;97.30;;;;;;5035584;28;20590;-86
2023/02/28 03:24:41;;;;;;;1.50;1.40;;;-0.40;97.30;;;;;;5012529;28;20399;-87
2023/02/28 03:27:16;;;;;;;1.60;1.50;;;-0.50;97.30;;;;;;5028713;28;20303;-84
2023/02/28 03:29:48;;;;;;;3.07;1.30;;;-0.50;97.30;;;;;;5014759;28;20413;-84
2023/02/28 03:32:25;;;;;;;1.43;1.33;;;-0.60;97.30;;;;;;5010559;28;20474;-84
2023/02/28 03:35:00;;;;;;;1.27;1.17;;;-0.60;97.30;;;;;;5009505;28;20418;-84
2023/02/28 03:37:29;;;;;;;1.50;1.40;;;-0.60;97.30;;;;;;5005755;28;20534;-85
2023/02/28 03:40:11;;;;;;;2.23;2.03;;;-0.60;97.30;;;;;;5025908;28;20498;-85
2023/02/28 03:42:39;;;;;;;2.90;2.70;;;-0.60;97.30;;;;;;5031309;28;20487;-85
2023/02/28 03:45:13;;;;;;;3.27;2.37;;;-0.60;97.30;;;;;;5012753;28;20510;-88
2023/02/28 03:47:47;;;;;;;1.57;1.47;;;-0.70;97.30;;;;;;5010219;28;20934;-85
2023/02/28 03:50:20;;;;;;;1.30;1.20;;;-0.70;97.30;;;;;;5016658;28;20489;-85
2023/02/28 03:53:01;;;;;;;1.47;1.37;;;-0.70;97.30;;;;;;5030047;28;20431;-84
2023/02/28 03:55:30;;;;;;;2.07;1.93;;;-0.70;97.30;;;;;;5016153;28;20455;-87
2023/02/28 03:58:05;;;;;;;1.63;1.40;;;-0.80;97.30;;;;;;5013977;28;20245;-86
2023/02/28 04:00:35;;;;;;;1.30;1.20;;;-0.80;97.30;;;;;;5010024;28;20213;-86
2023/02/28 04:03:01;;;;;;;6.20;4.00;;;-0.80;97.30;;;;;;5022039;28;20225;-86
2023/02/28 04:05:27;;;;;;;1.83;1.73;;;-0.80;97.30;;;;;;5018849;28;20430;-86
2023/02/28 04:07:53;;;;;;;1.50;1.40;;;-0.80;97.30;;;;;;5020210;28;20684;-85
2023/02/28 04:10:19;;;;;;;1.77;1.67;;;-0.80;97.30;;;;;;5020005;28;20279;-87
2023/02/28 04:12:45;;;;;;;1.43;1.33;;;-0.80;97.30;;;;;;5022076;28;20832;-86
2023/02/28 04:15:11;;;;;;;6.00;3.03;;;-0.70;97.30;;;;;;5030832;28;20207;-86
2023/02/28 04:17:36;;;;;;;2.03;1.70;;;-0.70;97.30;;;;;;5041286;28;20182;-86
2023/02/28 04:20:03;;;;;;;1.83;1.73;;;-0.70;97.30;;;;;;5015482;28;20404;-85
2023/02/28 04:22:29;;;;;;;1.60;1.50;;;-0.70;97.30;;;;;;5017336;28;20213;-86
2023/02/28 04:24:54;;;;;;;1.50;1.40;;;-0.70;97.30;;;;;;5021665;28;20418;-83
2023/02/28 04:27:21;;;;;;;1.20;1.10;;;-0.70;97.30;;;;;;5020198;28;20259;-86
2023/02/28 04:29:46;;;;;;;1.20;1.10;;;-0.70;97.30;;;;;;5017691;28;20187;-87
2023/02/28 04:32:12;;;;;;;1.40;1.30;;;-0.60;97.30;;;;;;5026355;28;20567;-86
2023/02/28 04:34:38;;;;;;;1.60;1.50;;;-0.60;97.30;;;;;;5016779;28;20275;-86
2023/02/28 04:37:04;;;;;;;1.73;1.63;;;-0.60;97.30;;;;;;5020246;28;20234;-87
2023/02/28 04:39:30;;;;;;;1.80;1.70;;;-0.60;97.30;;;;;;5022020;28;20211;-86
2023/02/28 04:41:55;;;;;;;7.33;2.20;;;-0.70;97.30;;;;;;5021531;28;20400;-86
2023/02/28 04:44:22;;;;;;;3.13;2.93;;;-0.70;97.30;;;;;;5027850;28;20176;-87
2023/02/28 04:46:48;;;;;;;2.27;2.07;;;-0.70;97.30;;;;;;5015023;28;20193;-86
2023/02/28 04:49:15;;;;;;;1.70;1.60;;;-0.70;97.30;;;;;;5008331;28;20467;-86
2023/02/28 04:51:41;;;;;;;3.63;2.00;;;-0.70;97.30;;;;;;5022188;28;20949;-87
2023/02/28 04:54:06;;;;;;;1.60;1.50;;;-0.70;97.30;;;;;;5022911;28;20224;-87
2023/02/28 04:56:32;;;;;;;1.77;1.67;;;-0.70;97.30;;;;;;5022172;28;20446;-86
2023/02/28 04:58:58;;;;;;;2.50;2.30;;;-0.70;97.30;;;;;;5011500;28;20714;-86
2023/02/28 05:01:29;;;;;;;1.40;1.30;;;-0.80;97.30;;;;;;5015656;28;20179;-86
2023/02/28 05:03:56;;;;;;;3.17;1.60;;;-0.80;97.30;;;;;;5016309;28;20211;-87
2023/02/28 05:06:23;;;;;;;1.60;1.50;;;-0.80;97.30;;;;;;5010030;28;20411;-86
2023/02/28 05:08:49;;;;;;;1.67;1.57;;;-0.80;97.30;;;;;;5013346;28;20426;-89
2023/02/28 05:11:23;;;;;;;2.17;2.00;;;-0.80;97.30;;;;;;5023152;28;20406;-87
2023/02/28 05:13:50;;;;;;;3.13;2.03;;;-0.80;97.30;;;;;;5041837;28;20488;-86
2023/02/28 05:16:16;;;;;;;1.70;1.60;;;-0.80;97.30;;;;;;5002033;28;20458;-86
2023/02/28 05:18:42;;;;;;;1.80;1.70;;;-0.80;97.30;;;;;;5022142;28;20967;-86
2023/02/28 05:21:29;;;;;;;1.87;1.77;;;-0.80;97.30;;;;;;5011937;28;20201;-85
2023/02/28 05:23:56;;;;;;;3.20;2.87;;;-0.90;97.30;;;;;;5014342;28;20423;-87
2023/02/28 05:26:22;;;;;;;1.90;1.50;;;-0.90;97.30;;;;;;5034746;28;20410;-89
2023/02/28 05:28:47;;;;;;;3.47;2.20;;;-0.90;97.30;;;;;;5035882;28;20403;-89
2023/02/28 05:31:13;;;;;;;1.73;1.63;;;-0.90;97.30;;;;;;5034397;28;20151;-89
2023/02/28 05:33:39;;;;;;;1.43;1.33;;;-1.00;97.30;;;;;;5026066;28;20239;-89
2023/02/28 05:36:05;;;;;;;2.00;1.87;;;-1.00;97.30;;;;;;5022878;28;20487;-84
2023/02/28 05:38:31;;;;;;;1.35;1.25;;;-1.00;97.30;;;;;;5027306;28;20252;-87
2023/02/28 05:40:56;;;;;;;3.30;3.10;;;-1.10;97.30;;;;;;5024331;28;20408;-87
2023/02/28 05:43:22;;;;;;;2.00;1.90;;;-1.10;97.30;;;;;;5016783;28;20211;-85
2023/02/28 05:45:48;;;;;;;1.53;1.43;;;-1.10;97.30;;;;;;5018381;28;20215;-86
2023/02/28 05:48:13;;;;;;;1.13;1.10;;;-1.10;97.30;;;;;;5013958;28;20163;-85
2023/02/28 05:50:39;;;;;;;1.50;1.40;;;-1.10;97.30;;;;;;5016971;28;20184;-86
2023/02/28 05:53:05;;;;;;;4.13;1.83;;;-1.20;97.30;;;;;;5011057;28;20204;-84
2023/02/28 05:55:30;;;;;;;5.60;2.13;;;-1.20;97.30;;;;;;5015024;28;20242;-84
2023/02/28 05:57:56;;;;;;;3.47;3.10;;;-1.20;97.30;;;;;;5016674;28;20782;-84
2023/02/28 06:00:23;;;;;;;4.67;2.70;;;-1.20;97.30;;;;;;5018172;28;20180;-86
2023/02/28 06:02:48;;;;;;;1.33;1.23;;;-1.20;97.30;;;;;;5016903;28;20268;-83
2023/02/28 06:05:16;;;;;;;2.20;1.83;;;-1.20;97.30;;;;;;5011719;28;20464;-87
2023/02/28 06:07:43;;;;;;;1.97;1.87;;;-1.20;97.30;;;;;;5019902;28;20292;-86
2023/02/28 06:10:12;;;;;;;3.17;1.87;;;-1.20;97.30;;;;;;5013643;28;20418;-86
2023/02/28 06:12:38;;;;;;;1.20;1.10;;;-1.20;97.30;;;;;;5010313;28;20638;-86
2023/02/28 06:15:04;;;;;;;1.43;1.23;;;-1.20;97.30;;;;;;5025168;28;20420;-86
2023/02/28 06:17:32;;;;;;;1.70;1.60;;;-1.20;97.30;;;;;;5008097;28;20750;-86
2023/02/28 06:19:58;;;;;;;5.00;2.70;;;-1.20;97.30;;;;;;5013133;28;20428;-87
2023/02/28 06:22:23;;;;;;;1.50;1.40;;;-1.20;97.30;;;;;;5015964;28;20420;-86
2023/02/28 06:24:52;;;;;;;1.80;1.70;;;-1.20;97.30;;;;;;5014234;28;20192;-86
2023/02/28 06:27:20;;;;;;;2.30;2.13;;;-1.30;97.30;;;;;;5014999;28;20240;-84
2023/02/28 06:29:45;;;;;;;1.85;1.75;;;-1.30;97.30;;;;;;5016334;28;20559;-86
2023/02/28 06:32:11;;;;;;;1.97;1.87;;;-1.30;97.30;;;;;;5017505;28;20514;-85
2023/02/28 06:34:36;;;;;;;1.60;1.50;;;-1.30;97.30;;;;;;5014935;28;20179;-87
2023/02/28 06:37:02;;;;;;;2.27;2.07;;;-1.20;97.30;;;;;;5015065;28;20211;-86
2023/02/28 06:39:29;;;;;;;8.40;2.73;;;-1.20;97.30;;;;;;5004906;28;20195;-86
2023/02/28 06:41:54;;;;;;;1.67;1.57;;;-1.20;97.30;;;;;;5012816;28;20269;-84
2023/02/28 06:44:21;;;;;;;1.50;1.40;;;-1.20;97.30;;;;;;5014311;28;20443;-86
2023/02/28 06:46:46;;;;;;;1.50;1.40;;;-1.10;97.30;;;;;;5011271;28;20192;-85
2023/02/28 06:49:12;;;;;;;1.80;1.70;;;-1.10;97.30;;;;;;5009756;28;20415;-86
2023/02/28 06:51:41;;;;;;;1.53;1.43;;;-1.00;97.30;;;;;;5014745;28;20188;-86
2023/02/28 06:54:10;;;;;;;5.90;3.40;;;-1.00;97.30;;;;;;5012617;28;20162;-86
2023/02/28 06:56:35;;;;;;;1.43;1.33;;;-0.90;97.30;;;;;;5013677;28;20460;-86
2023/02/28 06:59:02;;;;;;;1.60;1.50;;;-0.90;97.30;;;;;;5014369;28;20439;-86
2023/02/28 07:01:27;;;;;;;1.70;1.63;;;-0.80;97.30;;;;;;5005986;28;20217;-85
2023/02/28 07:03:54;;;;;;;2.77;2.57;;;-0.70;97.30;;;;;;5011408;28;20844;-84
2023/02/28 07:06:24;;;;;;;1.97;1.87;;;-0.70;97.30;;;;;;5011895;28;20188;-85
2023/02/28 07:08:52;;;;;;;1.30;1.20;;;-0.60;97.30;;;;;;5012788;28;20404;-87
2023/02/28 07:11:18;;;;;;;2.33;2.13;;;-0.60;97.30;;;;;;5010439;28;20434;-84
2023/02/28 07:13:44;;;;;;;2.80;2.60;;;-0.50;97.30;;;;;;5019796;28;20246;-85
2023/02/28 07:16:12;;;;;;;2.43;2.23;;;-0.40;97.30;;;;;;5014523;28;20784;-85
2023/02/28 07:18:38;;;;;;;1.93;1.83;;;-0.40;97.30;;;;;;5014188;28;20172;-85
2023/02/28 07:21:06;;;;;;;1.67;1.57;;;-0.30;97.30;;;;;;5013967;28;20272;-83
2023/02/28 07:23:32;;;;;;;2.73;2.03;;;-0.20;97.30;;;;;;5024814;28;20192;-88
2023/02/28 07:25:57;;;;;;;2.07;1.93;;;-0.20;97.30;;;;;;5023526;28;20495;-87
2023/02/28 07:28:23;;;;;;;1.40;1.30;;;-0.10;97.30;;;;;;5018504;28;20280;-86
2023/02/28 07:30:49;;;;;;;2.40;2.20;;;-0.10;97.30;;;;;;4999428;28;20193;-84
2023/02/28 07:33:14;;;;;;;1.80;1.70;;;-0.10;97.30;;;;;;4983926;28;1040517;-86
2023/02/28 07:35:40;;;;;;;3.70;2.10;;;-0.10;97.30;;;;;;5019437;28;20264;-86
2023/02/28 07:38:07;;;;;;;2.80;1.43;;;-0.10;97.30;;;;;;5012923;28;20211;-86
2023/02/28 07:40:33;;;;;;;2.07;1.93;;;-0.10;97.30;;;;;;5015032;28;20538;-86
2023/02/28 07:43:00;;;;;;;1.70;1.50;;;0.00;97.30;;;;;;5012410;28;20953;-87
2023/02/28 07:45:26;;;;;;;1.33;1.23;;;0.00;97.30;;;;;;5020214;28;20189;-86
2023/02/28 07:47:52;;;;;;;1.20;1.10;;;0.10;97.30;;;;;;5011225;28;20403;-85
2023/02/28 07:50:18;;;;;;;1.97;1.73;;;0.10;97.30;;;;;;5001195;28;20852;-85
2023/02/28 07:52:43;;;;;;;2.30;2.10;;;0.20;97.30;;;;;;5008770;28;21126;-85
2023/02/28 07:55:09;;;;;;;1.43;1.27;;;0.30;97.30;;;;;;5018939;28;20201;-85
2023/02/28 07:57:35;;;;;;;1.53;1.50;;;0.50;97.30;;;;;;5015484;28;20270;-86
2023/02/28 08:00:03;;;;;;;2.20;1.93;;;0.60;97.30;;;;;;5012053;28;20751;-87
2023/02/28 08:02:29;;;;;;;2.20;1.83;;;0.70;97.30;;;;;;4992235;28;20446;-85
2023/02/28 08:04:54;;;;;;;4.30;1.73;;;0.80;97.30;;;;;;5010164;28;20428;-87
2023/02/28 08:07:20;;;;;;;1.77;1.67;;;0.90;97.30;;;;;;5016492;28;20226;-86
2023/02/28 08:09:46;;;;;;;2.80;2.40;;;0.90;97.30;;;;;;5007710;28;20679;-87
2023/02/28 08:12:12;;;;;;;6.13;2.77;;;1.00;97.30;;;;;;5006321;28;20208;-87
2023/02/28 08:14:38;;;;;;;1.50;1.40;;;1.10;97.30;;;;;;5006428;28;20181;-87
2023/02/28 08:17:04;;;;;;;1.40;1.30;;;1.20;97.30;;;;;;5013874;28;20471;-87
2023/02/28 08:19:29;;;;;;;2.33;2.17;;;1.30;96.90;;;;;;5009944;28;20542;-86
2023/02/28 08:21:55;;;;;;;2.00;1.40;;;1.40;96.30;;;;;;5011865;28;20712;-87
2023/02/28 08:24:21;;;;;;;1.03;0.93;;;1.50;96.00;;;;;;5012424;28;20170;-87
2023/02/28 08:26:47;;;;;;;1.50;1.40;;;1.50;95.30;;;;;;5012963;28;20455;-86
2023/02/28 08:29:12;;;;;;;2.03;1.90;;;1.60;95.20;;;;;;5011969;28;20557;-87
2023/02/28 08:31:38;;;;;;;1.20;1.10;;;1.70;94.60;;;;;;5012892;28;20580;-88
2023/02/28 08:34:12;;;;;;;1.00;0.90;;;1.70;94.00;;;;;;5016690;28;20242;-86
2023/02/28 08:36:38;;;;;;;1.50;1.40;;;1.80;94.10;;;;;;5006399;28;20215;-86
2023/02/28 08:39:05;;;;;;;5.00;1.70;;;1.80;94.20;;;;;;5005495;28;20219;-87
2023/02/28 08:41:30;;;;;;;1.40;1.30;;;1.90;93.60;;;;;;5010583;28;20727;-86
2023/02/28 08:43:56;;;;;;;3.10;2.47;;;2.00;93.50;;;;;;4998976;28;20448;-86
2023/02/28 08:46:22;;;;;;;4.00;1.57;;;2.10;93.60;;;;;;5013404;28;20184;-87
2023/02/28 08:48:52;;;;;;;1.40;1.30;;;2.10;92.30;;;;;;5007379;28;20193;-86
2023/02/28 08:51:21;;;;;;;1.67;1.57;;;2.20;92.10;;;;;;5007059;28;20443;-86
2023/02/28 08:53:50;;;;;;;1.57;1.47;;;2.20;92.60;;;;;;5015211;28;20446;-87
2023/02/28 08:56:17;;;;;;;1.93;1.83;;;2.30;92.40;;;;;;5002811;28;20601;-87
2023/02/28 08:58:45;;;;;;;1.47;1.37;;;2.30;91.10;;;;;;5007146;28;20498;-87
2023/02/28 09:01:29;;;;;;;1.95;1.85;;;2.30;91.00;;;;;;5006360;28;20427;-86
2023/02/28 09:03:56;;;;;;;1.30;1.20;;;2.40;90.30;;;;;;5008851;28;20444;-86
2023/02/28 09:06:23;;;;;;;1.70;1.60;;;2.50;90.50;;;;;;5012421;28;20762;-86
2023/02/28 09:08:50;;;;;;;1.13;1.03;;;2.60;91.00;;;;;;5002615;28;20232;-87
2023/02/28 09:11:16;;;;;;;1.53;1.30;;;2.60;90.30;;;;;;5003427;28;20705;-87
2023/02/28 09:13:42;;;;;;;2.37;2.20;;;2.70;89.20;;;;;;5011190;28;20469;-87
2023/02/28 09:16:10;;;;;;;2.50;2.03;;;2.90;88.50;;;;;;5007159;28;21045;-87
2023/02/28 09:18:37;;;;;;;1.30;1.20;;;3.00;87.30;;;;;;5013219;28;20262;-87
2023/02/28 09:21:21;;;;;;;2.20;1.67;;;3.00;86.80;;;;;;5005198;28;20424;-86
2023/02/28 09:23:48;;;;;;;9.70;2.00;;;3.10;85.80;;;;;;5002657;28;20459;-86
2023/02/28 09:26:23;;;;;;;1.30;1.20;;;3.10;85.50;;;;;;5003863;28;20633;-86
2023/02/28 09:28:49;;;;;;;2.83;1.97;;;3.20;84.80;;;;;;5014551;28;20504;-86
2023/02/28 09:31:20;;;;;;;1.20;1.10;;;3.40;84.90;;;;;;5012859;28;20966;-87
2023/02/28 09:33:50;;;;;;;5.17;2.03;;;3.40;83.90;;;;;;5019569;28;20483;-87
2023/02/28 09:36:15;;;;;;;2.60;2.40;;;3.40;83.80;;;;;;5003653;28;20502;-86
2023/02/28 09:38:42;;;;;;;9.70;2.93;;;3.50;84.70;;;;;;5010625;28;20414;-86
2023/02/28 09:41:47;;;;;;;2.57;2.37;;;3.60;84.20;;;;;;5034465;28;20191;-86
2023/02/28 09:44:22;;;;;;;1.50;1.40;;;3.70;84.20;;;;;;4996406;28;20479;-86
2023/02/28 09:46:53;;;;;;;1.77;1.40;;;3.90;83.60;;;;;;5015026;28;20429;-86
2023/02/28 09:49:33;;;;;;;1.30;1.20;;;3.90;83.00;;;;;;5010779;28;20442;-86
2023/02/28 09:52:02;;;;;;;1.43;1.33;;;3.90;81.60;;;;;;5012046;28;20920;-87
2023/02/28 09:54:31;;;;;;;1.47;1.37;;;3.90;81.90;;;;;;5033202;28;20426;-86
2023/02/28 09:57:18;;;;;;;1.47;1.37;;;4.00;82.30;;;;;;5013069;28;20469;-87
2023/02/28 10:00:13;;;;;;;1.57;1.47;;;4.10;82.30;;;;;;5004753;28;20941;-85
2023/02/28 10:03:00;;;;;;;1.70;1.60;;;4.10;81.00;;;;;;4988666;28;20501;-86
2023/02/28 10:05:38;;;;;;;1.93;1.60;;;4.10;81.60;;;;;;5006999;28;21003;-85
2023/02/28 10:08:24;;;;;;;1.53;1.47;;;4.00;81.30;;;;;;5006788;28;20960;-87
2023/02/28 10:10:55;;;;;;;1.47;1.37;;;4.10;81.50;;;;;;5007565;28;20414;-86
2023/02/28 10:13:37;;;;;;;1.20;1.10;;;3.90;80.30;;;;;;5009909;28;20435;-86
2023/02/28 10:16:22;;;;;;;2.57;2.37;;;3.70;80.90;;;;;;5024543;28;20486;-86
2023/02/28 10:19:02;;;;;;;1.30;1.20;;;3.70;82.00;;;;;;5014442;28;20419;-86
2023/02/28 10:21:36;;;;;;;1.40;1.30;;;3.80;81.10;;;;;;5014649;28;20422;-85
2023/02/28 10:24:20;;;;;;;1.83;1.50;;;3.90;81.20;;;;;;5007383;28;20445;-86
2023/02/28 10:26:47;;;;;;;2.97;1.37;;;4.10;81.50;;;;;;5005206;28;21097;-85
2023/02/28 10:29:13;;;;;;;2.67;2.30;;;4.30;81.70;;;;;;5016483;28;20510;-85
2023/02/28 10:31:39;;;;;;;2.23;2.03;;;4.40;81.20;;;;;;5005411;28;20512;-86
2023/02/28 10:34:06;;;;;;;1.67;1.57;;;4.50;80.60;;;;;;5005604;28;20407;-85
2023/02/28 10:36:31;;;;;;;1.60;1.50;;;4.60;80.60;;;;;;5004358;28;20737;-86
2023/02/28 10:38:57;;;;;;;1.97;1.87;;;4.70;81.10;;;;;;4999364;28;20791;-86
2023/02/28 10:41:35;;;;;;;1.60;1.50;;;4.70;80.10;;;;;;5006273;28;20199;-85
2023/02/28 10:44:22;;;;;;;4.63;2.03;;;4.80;80.90;;;;;;5000102;28;20197;-86
2023/02/28 10:46:49;;;;;;;1.57;1.47;;;4.80;80.00;;;;;;5000710;28;20419;-86
2023/02/28 10:49:22;;;;;;;1.67;1.60;;;4.90;80.90;;;;;;5007757;28;20447;-86
2023/02/28 10:51:52;;;;;;;1.77;1.67;;;4.90;80.60;;;;;;5001894;28;20422;-84
2023/02/28 10:54:37;;;;;;;3.53;1.23;;;4.90;80.30;;;;;;5009596;28;20415;-85
2023/02/28 10:57:06;;;;;;;2.13;1.97;;;5.00;81.40;;;;;;4999760;28;20475;-85
2023/02/28 10:59:32;;;;;;;1.30;1.20;;;5.10;80.90;;;;;;5004273;28;20992;-87
2023/02/28 11:01:57;;;;;;;2.13;1.97;;;5.20;80.40;;;;;;5005462;28;20531;-85
2023/02/28 11:04:29;;;;;;;2.33;2.13;;;5.20;80.60;;;;;;4998745;28;20252;-84
2023/02/28 11:07:03;;;;;;;1.70;1.60;;;5.30;80.00;;;;;;5010152;28;20636;-85
2023/02/28 11:09:38;;;;;;;1.27;1.17;;;5.30;79.40;;;;;;5009055;28;20493;-85
2023/02/28 11:12:19;;;;;;;1.97;1.87;;;5.20;79.20;;;;;;5005963;28;20533;-85
2023/02/28 11:14:50;;;;;;;1.20;1.10;;;5.30;79.40;;;;;;4998733;28;20420;-85
2023/02/28 11:17:25;;;;;;;3.87;2.27;;;5.50;80.00;;;;;;5005813;28;20463;-85
2023/02/28 11:19:55;;;;;;;1.87;1.77;;;5.60;79.50;;;;;;5004582;28;20416;-85
2023/02/28 11:22:28;;;;;;;8.53;2.70;;;5.50;78.60;;;;;;5007019;28;20934;-86
2023/02/28 11:24:56;;;;;;;1.77;1.67;;;5.50;80.30;;;;;;5007462;28;20416;-85
2023/02/28 11:27:29;;;;;;;1.63;1.53;;;5.60;80.30;;;;;;5008355;28;20450;-86
2023/02/28 11:29:54;;;;;;;1.73;1.63;;;5.70;79.40;;;;;;5000148;28;20416;-84
2023/02/28 11:32:24;;;;;;;4.40;2.80;;;5.80;79.70;;;;;;5000653;28;20560;-84
2023/02/28 11:35:11;;;;;;;4.23;4.00;;;5.70;79.00;;;;;;4998213;28;20662;-85
2023/02/28 11:37:38;;;;;;;3.07;2.83;;;5.80;81.20;;;;;;5006547;28;20491;-85
2023/02/28 11:40:25;;;;;;;3.53;1.67;;;6.00;80.50;;;;;;4997580;28;20416;-85
2023/02/28 11:43:05;;;;;;;2.47;1.73;;;6.10;79.70;;;;;;5007541;28;20432;-85
2023/02/28 11:45:45;;;;;;;1.80;1.70;;;6.10;79.90;;;;;;5007122;28;20417;-85
2023/02/28 11:48:17;;;;;;;9.53;1.93;;;6.10;79.60;;;;;;4998780;28;20470;-86
2023/02/28 11:50:58;;;;;;;1.50;1.40;;;6.10;78.90;;;;;;5000490;28;20479;-85
2023/02/28 11:54:01;;;;;;;2.13;1.97;;;6.00;78.30;;;;;;5009627;28;20472;-85
2023/02/28 11:56:47;;;;;;;1.37;1.27;;;5.90;78.90;;;;;;5007072;28;20455;-84
2023/02/28 11:59:35;;;;;;;2.70;2.53;;;6.00;80.30;;;;;;5002710;28;20412;-84
2023/02/28 12:02:24;;;;;;;1.43;1.40;;;6.10;79.90;;;;;;4998364;28;20429;-85
2023/02/28 12:05:28;;;;;;;2.67;2.47;;;6.10;79.50;;;;;;5004714;28;20797;-84
2023/02/28 12:08:38;;;;;;;3.40;2.70;;;6.20;78.80;;;;;;4998968;28;20419;-85
2023/02/28 12:11:34;;;;;;;1.40;1.30;;;6.40;79.20;;;;;;5005735;28;20424;-85
2023/02/28 12:14:16;;;;;;;1.53;1.50;;;6.60;78.30;;;;;;5013820;28;20442;-85
2023/02/28 12:16:57;;;;;;;1.97;1.87;;;6.70;79.20;;;;;;4999550;28;21025;-85
2023/02/28 12:19:48;;;;;;;2.13;1.97;;;6.80;78.10;;;;;;5006533;28;20420;-84
2023/02/28 12:22:35;;;;;;;1.40;1.30;;;6.90;79.60;;;;;;5003145;28;20436;-84
2023/02/28 12:25:06;;;;;;;2.73;2.57;;;7.00;78.80;;;;;;5011596;28;20806;-84
2023/02/28 12:27:42;;;;;;;3.40;2.13;;;7.20;78.00;;;;;;5015690;28;20831;-85
2023/02/28 12:30:28;;;;;;;2.33;2.13;;;7.30;77.90;;;;;;5014172;28;20964;-85
2023/02/28 12:33:20;;;;;;;1.93;1.80;;;7.40;77.70;;;;;;5016969;28;20505;-85
2023/02/28 12:35:57;;;;;;;2.23;2.03;;;7.40;76.90;;;;;;5018919;28;20499;-85
2023/02/28 12:38:34;;;;;;;3.13;2.93;;;7.50;77.10;;;;;;5013398;28;20814;-85
2023/02/28 12:41:08;;;;;;;18.17;3.87;;;7.70;78.00;;;;;;5029606;28;20416;-83
2023/02/28 12:43:42;;;;;;;1.80;1.70;;;7.80;77.20;;;;;;5004079;28;20435;-85
2023/02/28 12:46:13;;;;;;;8.40;3.60;;;8.00;77.70;;;;;;5013159;28;20459;-85
2023/02/28 12:48:47;;;;;;;2.93;2.73;;;7.90;75.80;;;;;;5009321;28;20431;-85
2023/02/28 12:51:15;;;;;;;3.37;3.07;;;7.60;75.50;;;;;;5013741;28;20507;-85
2023/02/28 12:53:56;;;;;;;3.57;3.00;;;7.50;76.80;;;;;;5005259;28;20443;-85
2023/02/28 12:56:44;;;;;;;5.67;2.37;;;7.60;76.60;;;;;;5003664;28;20462;-87
2023/02/28 12:59:12;;;;;;;2.77;2.43;;;7.70;77.40;;;;;;5005828;28;20434;-85
2023/02/28 13:01:59;;;;;;;5.50;2.10;;;7.90;76.90;;;;;;5005189;28;20420;-85
2023/02/28 13:05:01;;;;;;;2.60;2.27;;;7.90;76.10;;;;;;5013084;28;20423;-85
2023/02/28 13:07:58;;;;;;;2.60;2.40;;;7.90;74.80;;;;;;4994428;28;20502;-85
2023/02/28 13:10:24;;;;;;;2.90;2.70;;;7.80;76.10;;;;;;5013946;28;20411;-84
2023/02/28 13:12:51;;;;;;;2.87;2.50;;;7.90;76.30;;;;;;5015084;28;20491;-83
2023/02/28 13:15:28;;;;;;;7.57;2.97;;;8.00;75.60;;;;;;5008610;28;20634;-86
2023/02/28 13:17:57;;;;;;;6.60;4.03;;;8.10;75.00;;;;;;5008085;28;20427;-84